This is the latest recevied weather packets stored in our database for station/object EA4BCR. If no packets are shown the sender has not sent any weather packets the latest 10 day(s).
| Time | Temp. | Humidity | Pressure | Rain* | Wind** | Luminosity | Snow |
|---|---|---|---|---|---|---|---|
| 1787761214 | 30° C | 21% | 1006.1 hPa | - | - | - | - |
| 1787760614 | 30° C | 21% | 1006 hPa | - | - | - | - |
| 1787760013 | 30.56° C | 22% | 1005.9 hPa | - | - | - | - |
| 1787759414 | 30.56° C | 23% | 1005.7 hPa | - | - | - | - |
| 1787758814 | 30.56° C | 22% | 1005.8 hPa | - | - | - | - |
| 1787758213 | 31.11° C | 22% | 1005.6 hPa | - | - | - | - |
| 1787757614 | 31.11° C | 24% | 1005.7 hPa | - | - | - | - |
| 1787757013 | 30.56° C | 24% | 1005.7 hPa | - | - | - | - |
| 1787756413 | 31.11° C | 23% | 1005.7 hPa | - | - | - | - |
| 1787755814 | 31.11° C | 22% | 1005.8 hPa | - | - | - | - |
| 1787755214 | 31.11° C | 20% | 1006 hPa | - | - | - | - |
| 1787754614 | 31.11° C | 20% | 1005.8 hPa | - | - | - | - |
| 1787754014 | 31.67° C | 25% | 1005.8 hPa | - | - | - | - |
| 1787753413 | 30.56° C | 25% | 1006.4 hPa | - | - | - | - |
| 1787752813 | 30.56° C | 24% | 1006.5 hPa | - | - | - | - |
| 1787752213 | 30.56° C | 26% | 1006.6 hPa | - | - | - | - |
| 1787751613 | 30° C | 27% | 1006.6 hPa | - | - | - | - |
| 1787751013 | 30° C | 26% | 1006.9 hPa | - | - | - | - |
| 1787750413 | 30° C | 26% | 1006.9 hPa | - | - | - | - |
| 1787749813 | 31.11° C | 25% | 1006.8 hPa | - | - | - | - |
| 1787749213 | 31.11° C | 24% | 1006.7 hPa | - | - | - | - |
| 1787748613 | 30° C | 26% | 1007 hPa | - | - | - | - |
| 1787748013 | 30° C | 26% | 1007.3 hPa | - | - | - | - |
| 1787747413 | 29.44° C | 26% | 1007.3 hPa | - | - | - | - |
| 1787746813 | 30° C | 25% | 1007.3 hPa | - | - | - | - |
* Rain since midnight (hover to see other rain measurements)
** Current wind speed in m/s (hover to see current wind gust speed)